• Join FlightAware (Why Join?)
  • Login
  • US Flag 
10:41AM EDT


 

Airport Tracker/Info


-or-


 

Live Flight TrackerFlight Track Log ✈ LXJ342 ✈ 02-May-2013 ✈ KDAL - KSFO

Flight Track Log - Related Links

Times and Time Zones

All times are in EDT time to prevent confusion due to time zone crossing. See the LXJ342 flight status page for this flight to view local times or setup timezone preferences in your user account.

Time Position Orientation Groundspeed Altitude Reporting Facility
EDT Latitude Longitude Course Direction KTS MPH feet Rate Location/Type
11:44AM 32.8667 -96.8667 308° West 131 151 1,300  Level Dallas / Fort Worth TRACON
11:46AM 32.9000 -96.9167 308° West 195 224 3,800 1,980 Climbing Dallas / Fort Worth TRACON
11:47AM 32.9500 -96.9833 312° West 257 296 5,900 2,640 Climbing Dallas / Fort Worth TRACON
11:48AM 32.9833 -97.0667 296° West 246 283 9,400 3,000 Climbing Dallas / Fort Worth TRACON
11:49AM 33.0003 -97.1956 279° West 304 350 14,100 2,700 Climbing Fort Worth Center
11:50AM 32.9961 -97.3019 267° West 291 335 16,800 2,220 Climbing Fort Worth Center
11:51AM 32.9942 -97.3911 269° West 298 343 18,600 1,980 Climbing Fort Worth Center
11:52AM 32.9900 -97.5050 268° West 312 359 20,800 2,040 Climbing Fort Worth Center
11:53AM 32.9856 -97.6139 267° West 330 380 22,700 1,860 Climbing Fort Worth Center
11:54AM 32.9811 -97.7106 267° West 330 380 24,600 1,980 Climbing Fort Worth Center
11:55AM 32.9956 -97.8294 278° West 325 374 26,700 1,740 Climbing Fort Worth Center
11:56AM 33.0097 -97.9239 280° West 330 380 28,100 1,200 Climbing Fort Worth Center
11:57AM 33.0281 -98.0453 280° West 335 386 29,200 960 Climbing Fort Worth Center
11:58AM 33.0442 -98.1519 280° West 351 404 30,100 960 Climbing Fort Worth Center
11:59AM 33.0642 -98.2811 281° West 363 418 31,200 960 Climbing Fort Worth Center
12:00PM 33.0842 -98.3978 282° West 363 418 32,100 900 Climbing Fort Worth Center
12:01PM 33.1061 -98.5047 284° West 369 425 33,000 900 Climbing Fort Worth Center
12:02PM 33.1156 -98.6214 276° West 369 425 34,000 900 Climbing Fort Worth Center
12:03PM 33.1353 -98.7406 281° West 369 425 34,900 840 Climbing Fort Worth Center
12:04PM 33.1506 -98.8600 279° West 369 425 35,700 720 Climbing Fort Worth Center
12:05PM 33.1681 -98.9719 281° West 369 425 36,400 600 Climbing Fort Worth Center
12:06PM 33.1853 -99.0889 280° West 369 425 36,900 480 Climbing Fort Worth Center
12:07PM 33.2025 -99.2058 280° West 364 419 37,400 480 Climbing Fort Worth Center
12:08PM 33.2197 -99.3181 280° West 358 412 37,900 300 Climbing Fort Worth Center
12:09PM 33.2386 -99.4328 281° West 353 406 38,000  Climbing Fort Worth Center
12:10PM 33.2578 -99.5497 281° West 353 406 38,000  Level Fort Worth Center
12:11PM 33.3183 -99.6558 304° West 363 418 38,000  Level Fort Worth Center
12:12PM 33.3875 -99.7544 310° West 375 432 38,000  Level Fort Worth Center
12:13PM 33.4567 -99.8583 309° West 395 455 38,000  Level Fort Worth Center
12:14PM 33.5275 -99.9600 310° West 400 460 38,000  Level Fort Worth Center
12:15PM 33.5983 -100.0669 309° West 400 460 38,000  Level Fort Worth Center
12:16PM 33.6692 -100.1764 308° West 405 466 38,000  Level Fort Worth Center
12:17PM 33.7419 -100.2786 311° West 405 466 38,000  Level Fort Worth Center
12:18PM 33.8042 -100.3856 305° West 400 460 38,000  Level Fort Worth Center
12:19PM 33.8553 -100.5072 297° West 400 460 38,000  Level Fort Worth Center
12:20PM 33.9089 -100.6244 299° West 400 460 38,000  Level Fort Worth Center
12:21PM 33.9622 -100.7389 299° West 400 460 38,000  Level Fort Worth Center
12:22PM 34.0131 -100.8586 297° West 400 460 38,000  Level Fort Worth Center
12:23PM 34.0700 -100.9889 298° West 400 460 38,000  Level Fort Worth Center
12:24PM 34.1172 -101.0911 299° West 400 460 38,000  Level Fort Worth Center
12:25PM 34.1739 -101.2192 298° West 395 455 38,000  Level Fort Worth Center
12:26PM 34.2206 -101.3267 298° West 398 458 38,000  Level Fort Worth Center
12:27PM 34.2750 -101.4522 298° West 392 451 38,000  Level Fort Worth Center
12:29PM 34.3581 -101.6456 298° West 396 456 38,000  Level Albuquerque Center
12:30PM 34.4106 -101.7642 298° West 397 457 38,000  Level Albuquerque Center
12:31PM 34.4714 -101.9072 297° West 398 458 38,000  Level Albuquerque Center
12:32PM 34.5225 -102.0275 297° West 399 459 38,000  Level Albuquerque Center
12:33PM 34.5742 -102.1464 298° West 398 458 38,000  Level Albuquerque Center
12:34PM 34.6253 -102.2656 298° West 397 457 38,000  Level Albuquerque Center
12:35PM 34.6750 -102.3806 298° West 388 447 38,000  Level Albuquerque Center
12:36PM 34.7236 -102.4947 297° West 382 440 38,000  Level Albuquerque Center
12:37PM 34.7706 -102.6089 297° West 379 436 38,000  Level Albuquerque Center
12:38PM 34.8267 -102.7389 298° West 385 443 38,000  Level Albuquerque Center
12:39PM 34.8764 -102.8581 297° West 390 449 38,000  Level Albuquerque Center
12:41PM 34.9256 -102.9778 297° West 392 451 38,000  Level Albuquerque Center
12:42PM 34.9842 -103.1186 297° West 395 455 38,000  Level Albuquerque Center
12:43PM 35.0353 -103.2389 297° West 396 456 38,000  Level Albuquerque Center
12:44PM 35.0858 -103.3600 297° West 397 457 38,000  Level Albuquerque Center
12:45PM 35.1356 -103.4797 297° West 394 453 38,000  Level Albuquerque Center
12:46PM 35.1844 -103.6000 296° West 393 452 38,000  Level Albuquerque Center
12:47PM 35.2239 -103.7244 291° West 392 451 38,000  Level Albuquerque Center
12:48PM 35.2692 -103.8683 291° West 387 445 38,000  Level Albuquerque Center
12:49PM 35.3033 -103.9758 291° West 386 444 38,000  Level Albuquerque Center
12:50PM 35.3456 -104.1106 291° West 382 440 38,000  Level Albuquerque Center
12:51PM 35.3819 -104.2306 290° West 380 437 38,000  Level Albuquerque Center
12:52PM 35.4192 -104.3511 291° West 379 436 38,000  Level Albuquerque Center
12:53PM 35.4619 -104.4925 290° West 379 436 38,000  Level Albuquerque Center
12:54PM 35.4994 -104.6150 291° West 380 437 38,000  Level Albuquerque Center
12:55PM 35.5378 -104.7383 291° West 384 442 38,000  Level Albuquerque Center
12:57PM 35.6136 -104.9911 290° West 393 452 38,000  Level Albuquerque Center
12:58PM 35.6517 -105.1169 290° West 391 450 38,000  Level Albuquerque Center
12:59PM 35.7058 -105.2592 295° West 391 450 38,000  Level Albuquerque Center
01:00PM 35.7522 -105.3800 295° West 389 448 38,000  Level Albuquerque Center
01:01PM 35.7989 -105.5000 296° West 386 444 38,000  Level Albuquerque Center
01:02PM 35.8389 -105.6064 295° West 383 441 38,000  Level Albuquerque Center
01:03PM 35.8936 -105.7464 296° West 380 437 38,000  Level Albuquerque Center
01:04PM 35.9358 -105.8606 295° West 372 428 38,000  Level Albuquerque Center
01:05PM 35.9794 -105.9753 295° West 370 426 38,000  Level Albuquerque Center
01:06PM 36.0219 -106.0897 295° West 369 425 38,000  Level Albuquerque Center
01:07PM 36.0658 -106.2053 295° West 371 427 38,000  Level Albuquerque Center
01:08PM 36.1081 -106.3239 294° West 376 433 38,000  Level Albuquerque Center
01:10PM 36.1619 -106.4658 295° West 379 436 38,000  Level Albuquerque Center
01:11PM 36.2025 -106.5761 295° West 380 437 38,000  Level Albuquerque Center
01:12PM 36.2508 -106.7100 294° West 382 440 38,000  Level Albuquerque Center
01:13PM 36.2933 -106.8239 295° West 381 438 38,000  Level Albuquerque Center
01:14PM 36.3422 -106.9578 294° West 381 438 38,000  Level Albuquerque Center
01:15PM 36.3839 -107.0722 294° West 380 437 38,000  Level Albuquerque Center
01:15PM 36.4117 -107.1489 294° West 383 441 38,000  Level Denver Center
01:16PM 36.4594 -107.2822 294° West 381 438 38,000  Level Denver Center
01:17PM 36.4994 -107.3958 294° West 378 435 38,000  Level Denver Center
01:18PM 36.5475 -107.5306 294° West 382 440 38,000  Level Denver Center
01:19PM 36.5872 -107.6447 293° West 379 436 38,000  Level Denver Center
01:20PM 36.6361 -107.7783 295° West 380 437 38,000  Level Denver Center
01:21PM 36.6764 -107.8944 293° West 382 440 38,000  Level Denver Center
01:23PM 36.7169 -108.0086 294° West 380 437 38,000  Level Denver Center
01:24PM 36.7650 -108.1447 294° West 382 440 38,000  Level Denver Center
01:25PM 36.8058 -108.2594 294° West 379 436 38,000  Level Denver Center
01:26PM 36.8542 -108.3972 294° West 387 445 38,000  Level Denver Center
01:27PM 36.8953 -108.5150 294° West 389 448 38,000  Level Denver Center
01:28PM 36.9433 -108.6494 294° West 383 441 38,000  Level Denver Center
01:29PM 36.9842 -108.7678 293° West 386 444 38,000  Level Denver Center
01:30PM 37.0303 -108.9019 293° West 382 440 38,000  Level Denver Center
01:31PM 37.0642 -109.0211 290° West 380 437 38,000  Level Denver Center
01:32PM 37.0983 -109.1644 287° West 383 441 38,000  Level Denver Center
01:33PM 37.1289 -109.2881 287° West 387 445 38,000  Level Denver Center
01:34PM 37.1642 -109.4314 287° West 387 445 38,000  Level Denver Center
01:35PM 37.1936 -109.5572 286° West 392 451 38,000  Level Denver Center
01:36PM 37.2297 -109.7025 287° West 392 451 38,000  Level Denver Center
01:37PM 37.2589 -109.8250 287° West 387 445 38,000  Level Denver Center
01:38PM 37.2911 -109.9706 286° West 388 447 38,000  Level Denver Center
01:39PM 37.3117 -110.1003 281° West 396 456 38,000  Level Denver Center
01:40PM 37.3464 -110.2303 289° West 385 443 38,000  Level Denver Center
01:41PM 37.3733 -110.3603 285° West 389 448 38,000  Level Denver Center
01:42PM 37.4036 -110.4878 287° West 378 435 38,000  Level Denver Center
01:43PM 37.4447 -110.6394 289° West 382 440 38,000  Level Denver Center
01:44PM 37.4761 -110.7653 287° West 379 436 38,000  Level Denver Center
01:45PM 37.5069 -110.8933 287° West 381 438 38,000  Level Denver Center
01:46PM 37.5364 -111.0197 286° West 378 435 38,000  Level Denver Center
01:47PM 37.5658 -111.1464 286° West 377 434 38,000  Level Denver Center
01:48PM 37.5942 -111.2719 286° West 375 432 38,000  Level Denver Center
01:49PM 37.6281 -111.4225 286° West 375 432 38,000  Level Denver Center
01:50PM 37.6558 -111.5492 286° West 375 432 38,000  Level Denver Center
01:51PM 37.6850 -111.6764 286° West 378 435 38,000  Level Denver Center
01:53PM 37.7128 -111.8025 286° West 377 434 38,000  Level Denver Center
01:54PM 37.7472 -111.9564 286° West 379 436 38,000  Level Salt Lake Center
01:55PM 37.7747 -112.0819 286° West 375 432 38,000  Level Salt Lake Center
01:56PM 37.8017 -112.2086 285° West 375 432 38,000  Level Salt Lake Center
01:57PM 37.8347 -112.3608 285° West 376 433 38,000  Level Salt Lake Center
01:58PM 37.8622 -112.4875 285° West 377 434 38,000  Level Salt Lake Center
01:59PM 37.8903 -112.6161 285° West 381 438 38,000  Level Salt Lake Center
02:00PM 37.9169 -112.7464 285° West 385 443 38,000  Level Salt Lake Center
02:01PM 37.9444 -112.8767 285° West 388 447 38,000  Level Salt Lake Center
02:02PM 37.9761 -113.0328 284° West 386 444 38,000  Level Salt Lake Center
02:03PM 38.0036 -113.1650 285° West 390 449 38,000  Level Salt Lake Center
02:04PM 38.0311 -113.2975 285° West 391 450 38,000  Level Salt Lake Center
02:05PM 38.0578 -113.4300 284° West 391 450 38,000  Level Salt Lake Center
02:06PM 38.0858 -113.5636 285° West 393 452 38,000  Level Salt Lake Center
02:07PM 38.1119 -113.6986 284° West 395 455 38,000  Level Salt Lake Center
02:08PM 38.1461 -113.8589 285° West 393 452 38,000  Level Salt Lake Center
02:09PM 38.1725 -113.9925 284° West 392 451 38,000  Level Salt Lake Center
02:10PM 38.1989 -114.1278 284° West 395 455 38,000  Level Salt Lake Center
02:11PM 38.2250 -114.2614 284° West 393 452 38,000  Level Salt Lake Center
02:12PM 38.2483 -114.3953 283° West 390 449 38,000  Level Salt Lake Center
02:13PM 38.2417 -114.5358 267° West 399 459 38,000  Level Salt Lake Center
02:14PM 38.2311 -114.7075 266° West 406 467 38,000  Level Salt Lake Center
02:15PM 38.2222 -114.8497 265° West 405 466 38,000  Level Salt Lake Center
02:16PM 38.2147 -114.9911 266° West 402 463 38,000  Level Salt Lake Center
02:17PM 38.2064 -115.1339 266° West 404 465 38,000  Level Salt Lake Center
02:18PM 38.1956 -115.2767 265° West 406 467 38,000  Level Salt Lake Center
02:19PM 38.1853 -115.4264 265° West 404 465 38,000  Level Salt Lake Center
02:20PM 38.1761 -115.5686 265° West 404 465 38,000  Level Salt Lake Center
02:22PM 38.1664 -115.7114 265° West 405 466 38,000  Level Salt Lake Center
02:23PM 38.1558 -115.8542 265° West 405 466 38,000  Level Salt Lake Center
02:24PM 38.1439 -116.0247 265° West 405 466 38,000  Level Salt Lake Center
02:25PM 38.1333 -116.1678 265° West 407 468 38,000  Level Salt Lake Center
02:26PM 38.1233 -116.3106 265° West 406 467 38,000  Level Salt Lake Center
02:26PM 38.1147 -116.4253 265° West 408 470 38,000  Level Oakland Center
02:27PM 38.1119 -116.4544 263° West 408 470 38,000  Level Salt Lake Center
02:28PM 38.1014 -116.5978 265° West 407 468 38,000  Level Salt Lake Center
02:29PM 38.0900 -116.7406 264° West 407 468 38,000  Level Salt Lake Center
02:30PM 38.0789 -116.8850 264° West 409 471 38,000  Level Salt Lake Center
02:30PM 38.0711 -116.9931 265° West 408 470 38,000  Level Oakland Center
02:32PM 38.0569 -117.1464 263° West 409 471 38,000  Level Oakland Center
02:33PM 38.0439 -117.2981 264° West 418 481 38,000  Level Oakland Center
02:34PM 38.0325 -117.4433 264° West 412 474 38,000  Level Oakland Center
02:35PM 38.0208 -117.5864 264° West 408 470 38,000  Level Oakland Center
02:36PM 38.0083 -117.7314 264° West 410 472 38,000  Level Oakland Center
02:37PM 37.9939 -117.8747 263° West 410 472 38,000  Level Oakland Center
02:38PM 37.9786 -118.0192 262° West 413 475 38,000  Level Oakland Center
02:39PM 37.9625 -118.1631 262° West 413 475 38,000  Level Oakland Center
02:40PM 37.9439 -118.3369 262° West 414 476 38,000  Level Oakland Center
02:41PM 37.9275 -118.4817 262° West 415 478 38,000  Level Oakland Center
02:42PM 37.9111 -118.6250 262° West 412 474 38,000  Level Oakland Center
02:43PM 37.8961 -118.7692 263° West 413 475 38,000  Level Oakland Center
02:44PM 37.8800 -118.9125 262° West 411 473 38,000  Level Oakland Center
02:45PM 37.8642 -119.0439 261° West 411 473 38,000  Level Oakland Center
02:46PM 37.8447 -119.2161 262° West 411 473 38,000  Level Oakland Center
02:47PM 37.8275 -119.3581 261° West 409 471 38,000  Level Oakland Center
02:48PM 37.8108 -119.5011 262° West 410 472 38,000  Level Oakland Center
02:49PM 37.7936 -119.6433 261° West 410 472 38,000  Level Oakland Center
02:50PM 37.7761 -119.7867 261° West 412 474 38,000 -540 Level Oakland Center
02:51PM 37.7589 -119.9306 261° West 413 475 37,000 -1,680 Descending Oakland Center
02:52PM 37.7403 -120.0792 261° West 424 488 34,700 -2,280 Descending Oakland Center
02:53PM 37.7228 -120.2225 261° West 417 480 32,400 -2,220 Descending Oakland Center
02:54PM 37.7033 -120.3700 261° West 423 487 30,200 -2,220 Descending Oakland Center
02:55PM 37.6850 -120.5178 261° West 424 488 27,900 -2,520 Descending Oakland Center
02:56PM 37.6667 -120.6667 261° West 418 481 25,600 -2,400 Descending Northern Cal TRACON
02:57PM 37.6500 -120.8000 261° West 413 475 23,600 -2,100 Descending Northern Cal TRACON
02:58PM 37.6333 -120.9500 262° West 417 480 21,400 -2,220 Descending Northern Cal TRACON
02:59PM 37.6167 -121.0833 261° West 405 466 19,200 -2,100 Descending Northern Cal TRACON
03:00PM 37.6000 -121.2167 261° West 392 451 17,200 -2,100 Descending Northern Cal TRACON
03:01PM 37.5833 -121.3500 261° West 378 435 15,100 -1,980 Descending Northern Cal TRACON
03:02PM 37.5667 -121.4667 260° West 340 391 13,300 -1,800 Descending Northern Cal TRACON
03:03PM 37.5500 -121.5833 260° West 313 360 11,600 -1,200 Descending Northern Cal TRACON
03:04PM 37.5333 -121.6833 258° West 274 315 10,900 -960 Descending Northern Cal TRACON
03:05PM 37.5167 -121.7667 256° West 251 289 9,700 -1,380 Descending Northern Cal TRACON
03:06PM 37.5000 -121.8500 256° West 234 269 8,200 -1,020 Descending Northern Cal TRACON
03:07PM 37.5000 -121.9167 270° West 233 268 7,700 -660 Descending Northern Cal TRACON
03:08PM 37.5167 -121.9833 288° West 195 224 6,900 -900 Descending Northern Cal TRACON
03:09PM 37.5333 -122.0500 288° West 189 217 6,000 -1,140 Descending Northern Cal TRACON
03:10PM 37.5333 -122.1000 270° West 178 205 4,800 -1,260 Descending Northern Cal TRACON
03:10PM 37.5400 -122.1383 282° West 181 208 4,000 -1,260 Descending Oakland Center
03:11PM 37.5558 -122.1969 289° West 177 204 2,700 -1,080 Descending Oakland Center
03:12PM 37.5722 -122.2522 291° West 174 200 1,800 -840 Descending Oakland Center
03:14PM 37.5886 -122.3053 291° West 168 193 1,100 -720 Descending Oakland Center
03:17PM 37.6167 -122.3667 322° Northwest  Level FlightAware Approximate